sensor_id;sensor_type;location;lat;lon;timestamp;pressure;altitude;pressure_sealevel;temperature;humidity
20983;BME280;10650;51.528;6.748;2022-08-11T00:01:04;102011.06;;;22.62;42.94
20983;BME280;10650;51.528;6.748;2022-08-11T00:03:33;102003.09;;;22.57;42.83
20983;BME280;10650;51.528;6.748;2022-08-11T00:06:09;102010.47;;;22.54;42.92
20983;BME280;10650;51.528;6.748;2022-08-11T00:08:40;102012.44;;;22.50;42.91
20983;BME280;10650;51.528;6.748;2022-08-11T00:11:10;102005.28;;;22.48;43.04
20983;BME280;10650;51.528;6.748;2022-08-11T00:13:41;102002.69;;;22.44;43.07
20983;BME280;10650;51.528;6.748;2022-08-11T00:16:13;102007.31;;;22.42;43.17
20983;BME280;10650;51.528;6.748;2022-08-11T00:18:45;102002.88;;;22.40;43.16
20983;BME280;10650;51.528;6.748;2022-08-11T00:21:14;102000.25;;;22.37;43.16
20983;BME280;10650;51.528;6.748;2022-08-11T00:23:44;102004.75;;;22.38;43.43
20983;BME280;10650;51.528;6.748;2022-08-11T00:26:14;102004.81;;;22.36;43.19
20983;BME280;10650;51.528;6.748;2022-08-11T00:28:43;102013.94;;;22.35;43.26
20983;BME280;10650;51.528;6.748;2022-08-11T00:31:21;102014.88;;;22.34;43.21
20983;BME280;10650;51.528;6.748;2022-08-11T00:33:51;102009.50;;;22.33;43.34
20983;BME280;10650;51.528;6.748;2022-08-11T00:36:25;102013.25;;;22.28;43.30
20983;BME280;10650;51.528;6.748;2022-08-11T00:39:02;102007.91;;;22.25;43.48
20983;BME280;10650;51.528;6.748;2022-08-11T00:41:35;102012.69;;;22.19;43.56
20983;BME280;10650;51.528;6.748;2022-08-11T00:44:22;102003.78;;;22.15;43.78
20983;BME280;10650;51.528;6.748;2022-08-11T00:46:58;102004.78;;;22.12;44.04
20983;BME280;10650;51.528;6.748;2022-08-11T00:49:38;102005.03;;;22.05;44.23
20983;BME280;10650;51.528;6.748;2022-08-11T00:52:24;102008.13;;;21.95;44.26
20983;BME280;10650;51.528;6.748;2022-08-11T00:55:16;102012.75;;;21.92;44.32
20983;BME280;10650;51.528;6.748;2022-08-11T00:58:25;102005.66;;;21.88;44.72
20983;BME280;10650;51.528;6.748;2022-08-11T01:01:09;102010.41;;;21.83;44.88
20983;BME280;10650;51.528;6.748;2022-08-11T01:04:04;102011.50;;;21.77;44.95
20983;BME280;10650;51.528;6.748;2022-08-11T01:07:02;102008.16;;;21.69;45.10
20983;BME280;10650;51.528;6.748;2022-08-11T01:09:48;102005.44;;;21.69;45.46
20983;BME280;10650;51.528;6.748;2022-08-11T01:12:34;102014.72;;;21.63;45.40
20983;BME280;10650;51.528;6.748;2022-08-11T01:18:58;102013.16;;;21.56;45.64
20983;BME280;10650;51.528;6.748;2022-08-11T01:22:10;102010.69;;;21.48;45.81
20983;BME280;10650;51.528;6.748;2022-08-11T01:25:16;102011.78;;;21.42;46.06
20983;BME280;10650;51.528;6.748;2022-08-11T01:28:36;102011.94;;;21.38;46.20
20983;BME280;10650;51.528;6.748;2022-08-11T01:31:40;102007.50;;;21.35;46.11
20983;BME280;10650;51.528;6.748;2022-08-11T01:37:50;102017.50;;;21.33;46.33
20983;BME280;10650;51.528;6.748;2022-08-11T01:40:51;102015.00;;;21.27;46.51
20983;BME280;10650;51.528;6.748;2022-08-11T01:44:02;102007.91;;;21.23;46.68
20983;BME280;10650;51.528;6.748;2022-08-11T01:46:55;102005.22;;;21.21;46.47
20983;BME280;10650;51.528;6.748;2022-08-11T01:49:38;102003.44;;;21.20;46.57
20983;BME280;10650;51.528;6.748;2022-08-11T01:52:39;102008.81;;;21.22;46.59
20983;BME280;10650;51.528;6.748;2022-08-11T01:55:14;102011.66;;;21.19;46.79
20983;BME280;10650;51.528;6.748;2022-08-11T01:57:49;102006.31;;;21.16;46.81
20983;BME280;10650;51.528;6.748;2022-08-11T02:00:23;102015.56;;;21.10;46.83
20983;BME280;10650;51.528;6.748;2022-08-11T02:03:00;102016.53;;;21.09;46.90
20983;BME280;10650;51.528;6.748;2022-08-11T02:05:58;102013.84;;;21.07;47.21
20983;BME280;10650;51.528;6.748;2022-08-11T02:08:42;102013.84;;;21.07;47.19
20983;BME280;10650;51.528;6.748;2022-08-11T02:11:21;102021.44;;;20.98;47.23
20983;BME280;10650;51.528;6.748;2022-08-11T02:14:00;102017.78;;;20.97;47.22
20983;BME280;10650;51.528;6.748;2022-08-11T02:16:44;102010.63;;;20.95;47.48
20983;BME280;10650;51.528;6.748;2022-08-11T02:19:22;102010.78;;;20.90;47.46
20983;BME280;10650;51.528;6.748;2022-08-11T02:22:17;102015.28;;;20.91;47.75
20983;BME280;10650;51.528;6.748;2022-08-11T02:25:19;102019.00;;;20.88;47.79
20983;BME280;10650;51.528;6.748;2022-08-11T02:27:54;102018.16;;;20.86;47.65
20983;BME280;10650;51.528;6.748;2022-08-11T02:30:31;102013.72;;;20.84;47.75
20983;BME280;10650;51.528;6.748;2022-08-11T02:33:11;102011.16;;;20.79;48.12
20983;BME280;10650;51.528;6.748;2022-08-11T02:35:57;102013.00;;;20.77;47.99
20983;BME280;10650;51.528;6.748;2022-08-11T02:38:33;102012.28;;;20.72;48.40
20983;BME280;10650;51.528;6.748;2022-08-11T02:41:15;102006.91;;;20.69;48.36
20983;BME280;10650;51.528;6.748;2022-08-11T02:44:14;102009.63;;;20.69;48.55
20983;BME280;10650;51.528;6.748;2022-08-11T02:46:52;102014.25;;;20.65;48.59
20983;BME280;10650;51.528;6.748;2022-08-11T02:49:35;102012.56;;;20.61;48.53
20983;BME280;10650;51.528;6.748;2022-08-11T02:52:35;102015.44;;;20.56;48.77
20983;BME280;10650;51.528;6.748;2022-08-11T02:55:21;102012.81;;;20.53;48.92
20983;BME280;10650;51.528;6.748;2022-08-11T02:58:17;102006.63;;;20.48;49.17
20983;BME280;10650;51.528;6.748;2022-08-11T03:00:56;102008.47;;;20.48;49.02
20983;BME280;10650;51.528;6.748;2022-08-11T03:03:33;102006.78;;;20.44;49.02
20983;BME280;10650;51.528;6.748;2022-08-11T03:06:08;102008.69;;;20.40;49.39
20983;BME280;10650;51.528;6.748;2022-08-11T03:08:47;102013.31;;;20.36;49.62
20983;BME280;10650;51.528;6.748;2022-08-11T03:11:37;102006.31;;;20.29;49.70
20983;BME280;10650;51.528;6.748;2022-08-11T03:14:34;102003.63;;;20.28;49.68
20983;BME280;10650;51.528;6.748;2022-08-11T03:17:27;102005.53;;;20.24;49.88
20983;BME280;10650;51.528;6.748;2022-08-11T03:20:07;102008.44;;;20.18;50.05
20983;BME280;10650;51.528;6.748;2022-08-11T03:22:48;101999.44;;;20.16;50.34
20983;BME280;10650;51.528;6.748;2022-08-11T03:28:15;102014.06;;;20.12;50.15
20983;BME280;10650;51.528;6.748;2022-08-11T03:30:52;102006.94;;;20.08;50.44
20983;BME280;10650;51.528;6.748;2022-08-11T03:33:24;102008.00;;;20.02;50.39
20983;BME280;10650;51.528;6.748;2022-08-11T03:39:52;102005.38;;;19.99;50.59
20983;BME280;10650;51.528;6.748;2022-08-11T03:42:29;102007.28;;;19.95;50.44
20983;BME280;10650;51.528;6.748;2022-08-11T03:45:10;102006.50;;;19.90;50.70
20983;BME280;10650;51.528;6.748;2022-08-11T03:47:57;102001.06;;;19.92;50.92
20983;BME280;10650;51.528;6.748;2022-08-11T03:50:47;102001.13;;;19.88;51.05
20983;BME280;10650;51.528;6.748;2022-08-11T03:53:35;102002.13;;;19.86;50.92
20983;BME280;10650;51.528;6.748;2022-08-11T04:02:25;101998.53;;;19.84;50.99
20983;BME280;10650;51.528;6.748;2022-08-11T04:05:26;102003.97;;;19.84;51.14
20983;BME280;10650;51.528;6.748;2022-08-11T04:11:50;102006.78;;;19.81;51.30
20983;BME280;10650;51.528;6.748;2022-08-11T04:14:42;102003.22;;;19.77;51.72
20983;BME280;10650;51.528;6.748;2022-08-11T04:18:09;101993.34;;;19.75;51.62
20983;BME280;10650;51.528;6.748;2022-08-11T04:21:05;102002.41;;;19.74;51.64
20983;BME280;10650;51.528;6.748;2022-08-11T04:24:04;101998.81;;;19.73;51.49
20983;BME280;10650;51.528;6.748;2022-08-11T04:27:31;101995.28;;;19.69;51.78
20983;BME280;10650;51.528;6.748;2022-08-11T04:30:07;101989.91;;;19.68;51.64
20983;BME280;10650;51.528;6.748;2022-08-11T04:33:08;101988.91;;;19.72;52.03
20983;BME280;10650;51.528;6.748;2022-08-11T04:35:49;101996.06;;;19.75;51.68
20983;BME280;10650;51.528;6.748;2022-08-11T04:38:48;101988.81;;;19.75;51.71
20983;BME280;10650;51.528;6.748;2022-08-11T04:41:50;101995.09;;;19.79;51.59
20983;BME280;10650;51.528;6.748;2022-08-11T04:48:09;102002.28;;;19.80;51.83
20983;BME280;10650;51.528;6.748;2022-08-11T04:51:10;101999.50;;;19.81;51.84
20983;BME280;10650;51.528;6.748;2022-08-11T04:54:20;102003.19;;;19.80;51.84
20983;BME280;10650;51.528;6.748;2022-08-11T04:57:18;102002.22;;;19.81;51.92
20983;BME280;10650;51.528;6.748;2022-08-11T05:00:07;102009.44;;;19.82;51.80
20983;BME280;10650;51.528;6.748;2022-08-11T05:03:21;102013.84;;;19.86;51.96
20983;BME280;10650;51.528;6.748;2022-08-11T05:06:18;102010.16;;;19.89;52.21
20983;BME280;10650;51.528;6.748;2022-08-11T05:09:21;102013.72;;;19.91;52.11
20983;BME280;10650;51.528;6.748;2022-08-11T05:12:09;102016.38;;;19.93;52.10
20983;BME280;10650;51.528;6.748;2022-08-11T05:14:47;102013.56;;;19.96;52.14
20983;BME280;10650;51.528;6.748;2022-08-11T05:17:39;102017.00;;;20.02;52.04
20983;BME280;10650;51.528;6.748;2022-08-11T05:20:27;102020.50;;;20.08;51.92
20983;BME280;10650;51.528;6.748;2022-08-11T05:23:14;102027.66;;;20.10;51.57
20983;BME280;10650;51.528;6.748;2022-08-11T05:26:02;102029.16;;;20.20;51.80
20983;BME280;10650;51.528;6.748;2022-08-11T05:29:25;102033.38;;;20.31;51.84
20983;BME280;10650;51.528;6.748;2022-08-11T05:32:14;102028.63;;;20.39;51.72
20983;BME280;10650;51.528;6.748;2022-08-11T05:35:03;102039.19;;;20.48;51.36
20983;BME280;10650;51.528;6.748;2022-08-11T05:37:39;102033.56;;;20.54;51.09
20983;BME280;10650;51.528;6.748;2022-08-11T05:40:10;102043.28;;;20.63;50.79
20983;BME280;10650;51.528;6.748;2022-08-11T05:42:59;102027.72;;;20.70;50.35
20983;BME280;10650;51.528;6.748;2022-08-11T05:45:55;102031.13;;;20.77;50.29
20983;BME280;10650;51.528;6.748;2022-08-11T05:48:41;102030.94;;;20.83;50.50
20983;BME280;10650;51.528;6.748;2022-08-11T05:51:33;102032.50;;;20.90;50.77
20983;BME280;10650;51.528;6.748;2022-08-11T05:54:21;102025.94;;;20.97;50.19
20983;BME280;10650;51.528;6.748;2022-08-11T05:57:07;102028.50;;;21.02;49.31
20983;BME280;10650;51.528;6.748;2022-08-11T06:00:00;102030.06;;;21.11;49.36
20983;BME280;10650;51.528;6.748;2022-08-11T06:02:29;102028.00;;;21.17;49.38
20983;BME280;10650;51.528;6.748;2022-08-11T06:04:58;102024.09;;;21.26;49.15
20983;BME280;10650;51.528;6.748;2022-08-11T06:07:28;102035.59;;;21.34;49.15
20983;BME280;10650;51.528;6.748;2022-08-11T06:10:24;102027.22;;;21.42;48.68
20983;BME280;10650;51.528;6.748;2022-08-11T06:12:53;102032.53;;;21.45;48.31
20983;BME280;10650;51.528;6.748;2022-08-11T06:15:24;102041.31;;;21.53;48.24
20983;BME280;10650;51.528;6.748;2022-08-11T06:17:54;102033.84;;;21.60;48.03
20983;BME280;10650;51.528;6.748;2022-08-11T06:20:22;102024.53;;;21.67;47.67
20983;BME280;10650;51.528;6.748;2022-08-11T06:22:56;102021.56;;;21.75;47.67
20983;BME280;10650;51.528;6.748;2022-08-11T06:25:29;102025.84;;;21.82;47.51
20983;BME280;10650;51.528;6.748;2022-08-11T06:28:00;102027.41;;;21.89;47.42
20983;BME280;10650;51.528;6.748;2022-08-11T06:30:35;102021.59;;;21.99;47.14
20983;BME280;10650;51.528;6.748;2022-08-11T06:33:08;102018.59;;;22.06;47.07
20983;BME280;10650;51.528;6.748;2022-08-11T06:35:45;102020.09;;;22.15;47.07
20983;BME280;10650;51.528;6.748;2022-08-11T06:38:21;102025.31;;;22.21;46.62
20983;BME280;10650;51.528;6.748;2022-08-11T06:40:53;102022.28;;;22.29;46.27
20983;BME280;10650;51.528;6.748;2022-08-11T06:43:46;102022.13;;;22.34;45.71
20983;BME280;10650;51.528;6.748;2022-08-11T06:46:28;102031.91;;;22.39;45.91
20983;BME280;10650;51.528;6.748;2022-08-11T06:48:59;102027.13;;;22.46;45.95
20983;BME280;10650;51.528;6.748;2022-08-11T06:51:29;102020.50;;;22.53;46.01
20983;BME280;10650;51.528;6.748;2022-08-11T06:54:00;102016.50;;;22.62;45.76
20983;BME280;10650;51.528;6.748;2022-08-11T06:56:35;102028.00;;;22.70;45.19
20983;BME280;10650;51.528;6.748;2022-08-11T06:59:42;102030.34;;;22.79;45.25
20983;BME280;10650;51.528;6.748;2022-08-11T07:02:36;102024.53;;;22.89;45.05
20983;BME280;10650;51.528;6.748;2022-08-11T07:05:09;102024.16;;;22.98;44.86
20983;BME280;10650;51.528;6.748;2022-08-11T07:08:11;102030.09;;;23.08;44.98
20983;BME280;10650;51.528;6.748;2022-08-11T07:14:22;102027.72;;;23.22;44.15
20983;BME280;10650;51.528;6.748;2022-08-11T07:17:13;102034.69;;;23.29;44.28
20983;BME280;10650;51.528;6.748;2022-08-11T07:19:49;102035.34;;;23.36;43.93
20983;BME280;10650;51.528;6.748;2022-08-11T07:22:36;102029.59;;;23.42;43.83
20983;BME280;10650;51.528;6.748;2022-08-11T07:25:31;102030.16;;;23.50;43.02
20983;BME280;10650;51.528;6.748;2022-08-11T07:28:22;102025.34;;;23.57;43.60
20983;BME280;10650;51.528;6.748;2022-08-11T07:31:10;102025.84;;;23.67;42.89
20983;BME280;10650;51.528;6.748;2022-08-11T07:33:43;102027.34;;;23.74;42.86
20983;BME280;10650;51.528;6.748;2022-08-11T07:36:37;102033.31;;;23.82;42.96
20983;BME280;10650;51.528;6.748;2022-08-11T07:39:09;102021.22;;;23.90;43.11
20983;BME280;10650;51.528;6.748;2022-08-11T07:41:42;102016.22;;;23.99;42.84
20983;BME280;10650;51.528;6.748;2022-08-11T07:44:10;102022.09;;;24.11;42.74
20983;BME280;10650;51.528;6.748;2022-08-11T07:46:40;102024.34;;;24.22;42.22
20983;BME280;10650;51.528;6.748;2022-08-11T07:49:28;102013.84;;;24.31;42.27
20983;BME280;10650;51.528;6.748;2022-08-11T07:52:16;102020.75;;;24.40;42.04
20983;BME280;10650;51.528;6.748;2022-08-11T07:54:57;102017.63;;;24.48;41.83
20983;BME280;10650;51.528;6.748;2022-08-11T07:57:26;102010.06;;;24.55;41.59
20983;BME280;10650;51.528;6.748;2022-08-11T08:00:35;102015.00;;;24.65;41.58
20983;BME280;10650;51.528;6.748;2022-08-11T08:03:24;102007.41;;;24.72;40.73
20983;BME280;10650;51.528;6.748;2022-08-11T08:06:20;102004.44;;;24.77;40.94
20983;BME280;10650;51.528;6.748;2022-08-11T08:09:08;101998.81;;;24.80;40.07
20983;BME280;10650;51.528;6.748;2022-08-11T08:11:54;101996.63;;;24.88;40.60
20983;BME280;10650;51.528;6.748;2022-08-11T08:14:40;102005.47;;;24.93;40.18
20983;BME280;10650;51.528;6.748;2022-08-11T08:17:27;102003.16;;;25.03;40.19
20983;BME280;10650;51.528;6.748;2022-08-11T08:20:35;102004.69;;;25.09;39.82
20983;BME280;10650;51.528;6.748;2022-08-11T08:23:04;102008.75;;;25.19;40.23
20983;BME280;10650;51.528;6.748;2022-08-11T08:25:35;102011.00;;;25.28;39.58
20983;BME280;10650;51.528;6.748;2022-08-11T08:28:06;102009.69;;;25.37;40.11
20983;BME280;10650;51.528;6.748;2022-08-11T08:30:36;102012.03;;;25.45;39.02
20983;BME280;10650;51.528;6.748;2022-08-11T08:33:15;102004.38;;;25.51;39.21
20983;BME280;10650;51.528;6.748;2022-08-11T08:35:45;102010.41;;;25.58;38.76
20983;BME280;10650;51.528;6.748;2022-08-11T08:38:21;102005.44;;;25.66;38.22
20983;BME280;10650;51.528;6.748;2022-08-11T08:40:51;102006.78;;;25.75;38.53
20983;BME280;10650;51.528;6.748;2022-08-11T08:43:23;102008.84;;;25.87;38.59
20983;BME280;10650;51.528;6.748;2022-08-11T08:45:54;102010.22;;;25.96;37.56
20983;BME280;10650;51.528;6.748;2022-08-11T08:48:23;102013.38;;;26.06;37.97
20983;BME280;10650;51.528;6.748;2022-08-11T08:50:55;102002.97;;;26.13;36.99
20983;BME280;10650;51.528;6.748;2022-08-11T08:53:48;102011.75;;;26.19;37.38
20983;BME280;10650;51.528;6.748;2022-08-11T08:56:25;102007.69;;;26.27;37.20
20983;BME280;10650;51.528;6.748;2022-08-11T08:58:55;102004.53;;;26.34;36.78
20983;BME280;10650;51.528;6.748;2022-08-11T09:01:27;102003.38;;;26.38;36.64
20983;BME280;10650;51.528;6.748;2022-08-11T09:03:56;102011.16;;;26.46;36.77
20983;BME280;10650;51.528;6.748;2022-08-11T09:06:34;102010.75;;;26.54;36.08
20983;BME280;10650;51.528;6.748;2022-08-11T09:09:06;102008.59;;;26.59;36.51
20983;BME280;10650;51.528;6.748;2022-08-11T09:11:36;102010.78;;;26.70;37.06
20983;BME280;10650;51.528;6.748;2022-08-11T09:14:20;102015.53;;;26.82;37.08
20983;BME280;10650;51.528;6.748;2022-08-11T09:16:49;102009.44;;;26.93;35.83
20983;BME280;10650;51.528;6.748;2022-08-11T09:19:20;102006.97;;;27.04;35.67
20983;BME280;10650;51.528;6.748;2022-08-11T09:21:49;101999.28;;;27.11;35.74
20983;BME280;10650;51.528;6.748;2022-08-11T09:24:35;102009.88;;;27.17;35.27
20983;BME280;10650;51.528;6.748;2022-08-11T09:27:22;101999.53;;;27.22;35.04
20983;BME280;10650;51.528;6.748;2022-08-11T09:29:52;101999.16;;;27.28;35.59
20983;BME280;10650;51.528;6.748;2022-08-11T09:32:21;101997.81;;;27.36;34.85
20983;BME280;10650;51.528;6.748;2022-08-11T09:34:50;101997.53;;;27.40;34.35
20983;BME280;10650;51.528;6.748;2022-08-11T09:37:20;101988.16;;;27.44;34.30
20983;BME280;10650;51.528;6.748;2022-08-11T09:40:22;101986.09;;;27.48;35.17
20983;BME280;10650;51.528;6.748;2022-08-11T09:43:00;101988.38;;;27.56;34.26
20983;BME280;10650;51.528;6.748;2022-08-11T09:45:48;101992.22;;;27.68;33.75
20983;BME280;10650;51.528;6.748;2022-08-11T09:48:17;101984.41;;;27.76;33.31
20983;BME280;10650;51.528;6.748;2022-08-11T09:50:47;101985.19;;;27.78;34.01
20983;BME280;10650;51.528;6.748;2022-08-11T09:53:20;101976.75;;;27.81;32.53
20983;BME280;10650;51.528;6.748;2022-08-11T09:56:09;101985.59;;;27.86;33.66
20983;BME280;10650;51.528;6.748;2022-08-11T09:58:57;101980.59;;;27.93;33.99
20983;BME280;10650;51.528;6.748;2022-08-11T10:01:29;101985.03;;;27.95;32.10
20983;BME280;10650;51.528;6.748;2022-08-11T10:04:00;101980.84;;;28.04;31.44
20983;BME280;10650;51.528;6.748;2022-08-11T10:06:30;101984.88;;;28.13;31.88
20983;BME280;10650;51.528;6.748;2022-08-11T10:09:22;101978.56;;;28.25;32.03
20983;BME280;10650;51.528;6.748;2022-08-11T10:11:52;101968.06;;;28.32;32.62
20983;BME280;10650;51.528;6.748;2022-08-11T10:14:25;101978.84;;;28.35;31.69
20983;BME280;10650;51.528;6.748;2022-08-11T10:17:13;101967.66;;;28.38;31.60
20983;BME280;10650;51.528;6.748;2022-08-11T10:19:45;101964.63;;;28.43;30.92
20983;BME280;10650;51.528;6.748;2022-08-11T10:22:31;101962.06;;;28.54;31.92
20983;BME280;10650;51.528;6.748;2022-08-11T10:25:17;101956.94;;;28.62;31.65
20983;BME280;10650;51.528;6.748;2022-08-11T10:28:08;101947.53;;;28.67;30.11
20983;BME280;10650;51.528;6.748;2022-08-11T10:30:58;101943.47;;;28.72;30.83
20983;BME280;10650;51.528;6.748;2022-08-11T10:33:44;101946.59;;;28.80;30.37
20983;BME280;10650;51.528;6.748;2022-08-11T10:36:31;101944.41;;;28.86;30.11
20983;BME280;10650;51.528;6.748;2022-08-11T10:39:01;101936.94;;;28.88;30.22
20983;BME280;10650;51.528;6.748;2022-08-11T10:41:30;101933.00;;;28.92;30.28
20983;BME280;10650;51.528;6.748;2022-08-11T10:44:37;101935.22;;;28.99;30.52
20983;BME280;10650;51.528;6.748;2022-08-11T10:47:07;101932.94;;;29.06;30.16
20983;BME280;10650;51.528;6.748;2022-08-11T10:49:55;101931.63;;;29.12;30.78
20983;BME280;10650;51.528;6.748;2022-08-11T10:52:43;101919.22;;;29.19;30.79
20983;BME280;10650;51.528;6.748;2022-08-11T10:55:31;101926.09;;;29.26;29.65
20983;BME280;10650;51.528;6.748;2022-08-11T10:58:16;101934.44;;;29.25;29.15
20983;BME280;10650;51.528;6.748;2022-08-11T11:01:04;101916.84;;;29.27;29.88
20983;BME280;10650;51.528;6.748;2022-08-11T11:03:34;101916.94;;;29.26;29.92
20983;BME280;10650;51.528;6.748;2022-08-11T11:06:07;101913.66;;;29.33;29.27
20983;BME280;10650;51.528;6.748;2022-08-11T11:09:02;101904.09;;;29.39;28.23
20983;BME280;10650;51.528;6.748;2022-08-11T11:11:35;101901.34;;;29.39;29.17
20983;BME280;10650;51.528;6.748;2022-08-11T11:14:25;101899.47;;;29.52;29.37
20983;BME280;10650;51.528;6.748;2022-08-11T11:17:24;101900.25;;;29.55;28.97
20983;BME280;10650;51.528;6.748;2022-08-11T11:20:16;101904.53;;;29.59;28.24
20983;BME280;10650;51.528;6.748;2022-08-11T11:23:06;101899.47;;;29.65;27.68
20983;BME280;10650;51.528;6.748;2022-08-11T11:25:56;101908.06;;;29.74;27.09
20983;BME280;10650;51.528;6.748;2022-08-11T11:31:58;101901.72;;;29.86;27.29
20983;BME280;10650;51.528;6.748;2022-08-11T11:34:46;101901.13;;;29.94;27.82
20983;BME280;10650;51.528;6.748;2022-08-11T11:37:21;101889.25;;;29.93;27.70
20983;BME280;10650;51.528;6.748;2022-08-11T11:39:50;101890.88;;;29.96;27.44
20983;BME280;10650;51.528;6.748;2022-08-11T11:42:21;101888.69;;;30.01;27.53
20983;BME280;10650;51.528;6.748;2022-08-11T11:44:49;101877.97;;;30.09;27.95
20983;BME280;10650;51.528;6.748;2022-08-11T11:47:22;101877.75;;;30.12;27.54
20983;BME280;10650;51.528;6.748;2022-08-11T11:49:50;101870.00;;;30.17;27.92
20983;BME280;10650;51.528;6.748;2022-08-11T11:52:21;101863.28;;;30.22;27.41
20983;BME280;10650;51.528;6.748;2022-08-11T11:54:53;101859.53;;;30.23;26.36
20983;BME280;10650;51.528;6.748;2022-08-11T11:57:22;101863.81;;;30.27;26.57
20983;BME280;10650;51.528;6.748;2022-08-11T12:00:25;101855.56;;;30.27;26.21
20983;BME280;10650;51.528;6.748;2022-08-11T12:03:11;101861.53;;;30.20;25.93
20983;BME280;10650;51.528;6.748;2022-08-11T12:05:41;101870.97;;;30.29;26.29
20983;BME280;10650;51.528;6.748;2022-08-11T12:08:12;101857.44;;;30.26;25.71
20983;BME280;10650;51.528;6.748;2022-08-11T12:10:46;101857.66;;;30.23;26.16
20983;BME280;10650;51.528;6.748;2022-08-11T12:13:16;101853.22;;;30.33;27.42
20983;BME280;10650;51.528;6.748;2022-08-11T12:16:02;101848.00;;;30.42;27.04
20983;BME280;10650;51.528;6.748;2022-08-11T12:18:52;101841.03;;;30.49;27.00
20983;BME280;10650;51.528;6.748;2022-08-11T12:21:22;101844.47;;;30.52;26.74
20983;BME280;10650;51.528;6.748;2022-08-11T12:23:53;101842.69;;;30.51;27.05
20983;BME280;10650;51.528;6.748;2022-08-11T12:26:39;101833.31;;;30.54;26.21
20983;BME280;10650;51.528;6.748;2022-08-11T12:29:44;101837.47;;;30.60;26.71
20983;BME280;10650;51.528;6.748;2022-08-11T12:32:22;101834.59;;;30.61;26.48
20983;BME280;10650;51.528;6.748;2022-08-11T12:34:51;101835.13;;;30.66;26.20
20983;BME280;10650;51.528;6.748;2022-08-11T12:37:22;101835.41;;;30.75;25.93
20983;BME280;10650;51.528;6.748;2022-08-11T12:39:57;101813.00;;;30.79;26.17
20983;BME280;10650;51.528;6.748;2022-08-11T12:43:06;101821.66;;;30.86;24.92
20983;BME280;10650;51.528;6.748;2022-08-11T12:46:07;101813.13;;;30.89;25.62
20983;BME280;10650;51.528;6.748;2022-08-11T12:48:42;101806.88;;;30.87;25.82
20983;BME280;10650;51.528;6.748;2022-08-11T12:51:33;101801.97;;;30.91;26.10
20983;BME280;10650;51.528;6.748;2022-08-11T12:54:44;101796.84;;;30.97;26.02
20983;BME280;10650;51.528;6.748;2022-08-11T12:57:16;101790.88;;;31.03;25.96
20983;BME280;10650;51.528;6.748;2022-08-11T13:00:06;101793.97;;;30.99;25.75
20983;BME280;10650;51.528;6.748;2022-08-11T13:02:53;101789.34;;;30.99;25.56
20983;BME280;10650;51.528;6.748;2022-08-11T13:05:40;101789.88;;;31.04;25.39
20983;BME280;10650;51.528;6.748;2022-08-11T13:08:11;101786.00;;;31.07;25.75
20983;BME280;10650;51.528;6.748;2022-08-11T13:10:41;101783.88;;;31.11;25.60
20983;BME280;10650;51.528;6.748;2022-08-11T13:13:28;101782.50;;;31.05;26.02
20983;BME280;10650;51.528;6.748;2022-08-11T13:16:17;101774.56;;;31.00;25.04
20983;BME280;10650;51.528;6.748;2022-08-11T13:18:46;101775.47;;;31.01;24.24
20983;BME280;10650;51.528;6.748;2022-08-11T13:21:16;101770.75;;;30.90;26.51
20983;BME280;10650;51.528;6.748;2022-08-11T13:23:47;101763.25;;;30.92;26.15
20983;BME280;10650;51.528;6.748;2022-08-11T13:26:33;101772.03;;;30.97;25.90
20983;BME280;10650;51.528;6.748;2022-08-11T13:29:18;101763.28;;;31.03;25.34
20983;BME280;10650;51.528;6.748;2022-08-11T13:31:46;101770.97;;;31.11;25.10
20983;BME280;10650;51.528;6.748;2022-08-11T13:34:15;101768.72;;;31.05;24.77
20983;BME280;10650;51.528;6.748;2022-08-11T13:36:45;101763.41;;;31.02;24.84
20983;BME280;10650;51.528;6.748;2022-08-11T13:39:14;101761.06;;;31.09;25.44
20983;BME280;10650;51.528;6.748;2022-08-11T13:41:43;101766.31;;;31.12;25.89
20983;BME280;10650;51.528;6.748;2022-08-11T13:44:16;101751.78;;;31.10;25.82
20983;BME280;10650;51.528;6.748;2022-08-11T13:46:51;101749.50;;;31.15;25.30
20983;BME280;10650;51.528;6.748;2022-08-11T13:49:21;101748.38;;;31.17;25.95
20983;BME280;10650;51.528;6.748;2022-08-11T13:51:49;101760.41;;;31.16;25.05
20983;BME280;10650;51.528;6.748;2022-08-11T13:54:20;101752.13;;;31.16;24.60
20983;BME280;10650;51.528;6.748;2022-08-11T13:56:52;101750.75;;;31.22;25.21
20983;BME280;10650;51.528;6.748;2022-08-11T13:59:22;101747.13;;;31.21;24.47
20983;BME280;10650;51.528;6.748;2022-08-11T14:01:58;101747.13;;;31.21;24.28
20983;BME280;10650;51.528;6.748;2022-08-11T14:04:52;101738.22;;;31.29;24.21
20983;BME280;10650;51.528;6.748;2022-08-11T14:07:20;101735.13;;;31.34;24.62
20983;BME280;10650;51.528;6.748;2022-08-11T14:09:55;101727.69;;;31.34;24.90
20983;BME280;10650;51.528;6.748;2022-08-11T14:12:26;101740.63;;;31.34;24.72
20983;BME280;10650;51.528;6.748;2022-08-11T14:15:16;101737.75;;;31.35;25.10
20983;BME280;10650;51.528;6.748;2022-08-11T14:17:51;101733.09;;;31.36;24.75
20983;BME280;10650;51.528;6.748;2022-08-11T14:20:22;101726.56;;;31.37;24.49
20983;BME280;10650;51.528;6.748;2022-08-11T14:23:07;101725.44;;;31.39;24.68
20983;BME280;10650;51.528;6.748;2022-08-11T14:25:38;101724.34;;;31.31;23.97
20983;BME280;10650;51.528;6.748;2022-08-11T14:28:30;101719.28;;;31.25;23.98
20983;BME280;10650;51.528;6.748;2022-08-11T14:31:08;101715.91;;;31.21;24.24
20983;BME280;10650;51.528;6.748;2022-08-11T14:33:37;101728.34;;;31.27;25.45
20983;BME280;10650;51.528;6.748;2022-08-11T14:36:29;101718.81;;;31.31;25.03
20983;BME280;10650;51.528;6.748;2022-08-11T14:38:57;101719.81;;;31.30;24.48
20983;BME280;10650;51.528;6.748;2022-08-11T14:41:26;101714.63;;;31.36;24.87